Have a Safe July 4th! 

Flight Track Log - Related Links

Times and Time Zones

All times are in EDT time to prevent confusion due to time zone crossing. See the N717AN flight status page for this flight to view local times or setup timezone preferences in your user account.

Time Position Orientation Groundspeed Altitude Reporting Facility
EDT Latitude Longitude Course Direction KTS MPH feet Rate Location/Type
Wed 08:22:47 PM -23.4220 -46.4390 70° East 192 221 3,000  Level FlightAware ADS-B
Wed 08:23:17 PM -23.4140 -46.4110 73° East 197 227 4,100 1,745 Climbing FlightAware ADS-B
Wed 08:23:42 PM -23.4060 -46.3850 71° East 226 260 4,600 1,309 Climbing FlightAware ADS-B
Wed 08:24:12 PM -23.3960 -46.3490 73° East 256 295 5,300 1,467 Climbing FlightAware ADS-B
Wed 08:24:27 PM -23.3900 -46.3310 70° East 265 305 5,700 1,950 Climbing FlightAware ADS-B
Wed 08:24:52 PM -23.3800 -46.2990 71° East 271 312 6,600 2,291 Climbing FlightAware ADS-B
Wed 08:25:22 PM -23.3660 -46.2580 70° East 282 325 7,800 2,400 Climbing FlightAware ADS-B
Wed 08:25:37 PM -23.3520 -46.2430 45° Northeast 288 331 8,400 1,800 Climbing FlightAware ADS-B
Wed 08:25:52 PM -23.3350 -46.2330 28° Northeast 293 337 8,700 1,600 Climbing FlightAware ADS-B
Wed 08:26:07 PM -23.3130 -46.2300 North 308 354 9,200 2,250 Climbing FlightAware ADS-B
Wed 08:26:32 PM -23.2770 -46.2350 353° North 308 354 10,200 1,662 Climbing FlightAware ADS-B
Wed 08:27:12 PM -23.2170 -46.2430 353° North 337 388 11,000 1,341 Climbing FlightAware ADS-B
Wed 08:27:57 PM -23.1400 -46.2520 354° North 385 443 12,100 1,553 Climbing FlightAware ADS-B
Wed 08:28:37 PM -23.0670 -46.2610 354° North 405 466 13,200 2,550 Climbing FlightAware ADS-B
Wed 08:29:17 PM -22.9910 -46.2740 351° North 392 451 15,500 2,753 Climbing FlightAware ADS-B
Wed 08:30:02 PM -22.9070 -46.2870 352° North 404 465 17,100 2,047 Climbing FlightAware ADS-B
Wed 08:30:42 PM -22.8330 -46.2980 352° North 423 487 18,400 2,188 Climbing FlightAware ADS-B
Wed 08:31:27 PM -22.7450 -46.3110 352° North 422 486 20,200 2,118 Climbing FlightAware ADS-B
Wed 08:32:07 PM -22.6660 -46.3230 352° North 423 487 21,400 1,765 Climbing FlightAware ADS-B
Wed 08:32:52 PM -22.5750 -46.3370 352° North 440 506 22,700 1,694 Climbing FlightAware ADS-B
Wed 08:33:32 PM -22.4950 -46.3490 352° North 440 506 23,800 1,500 Climbing FlightAware ADS-B
Wed 08:34:12 PM -22.4110 -46.3620 352° North 452 520 24,700 1,341 Climbing FlightAware ADS-B
Wed 08:34:57 PM -22.3140 -46.3770 352° North 471 542 25,700 1,412 Climbing FlightAware ADS-B
Wed 08:35:37 PM -22.2270 -46.3900 352° North 468 539 26,700 1,482 Climbing FlightAware ADS-B
Wed 08:36:22 PM -22.1270 -46.4050 352° North 483 556 27,800 1,341 Climbing FlightAware ADS-B
Wed 08:37:02 PM -22.0380 -46.4180 352° North 484 557 28,600 1,200 Climbing FlightAware ADS-B
Wed 08:37:42 PM -21.9450 -46.4320 352° North 503 579 29,400 1,059 Climbing FlightAware ADS-B
Wed 08:38:27 PM -21.8410 -46.4480 352° North 506 582 30,100 1,200 Climbing FlightAware ADS-B
Wed 08:39:07 PM -21.7470 -46.4620 352° North 515 593 31,100 1,624 Climbing FlightAware ADS-B
Wed 08:39:52 PM -21.6390 -46.4790 352° North 503 579 32,400 1,341 Climbing FlightAware ADS-B
Wed 08:40:32 PM -21.5500 -46.4920 352° North 507 583 33,000 450 Climbing FlightAware ADS-B
Wed 08:41:12 PM -21.4540 -46.5060 352° North 506 582 33,000  Level FlightAware ADS-B
Wed 08:41:57 PM -21.3470 -46.5220 352° North 504 580 33,000  Level FlightAware ADS-B
Wed 08:42:37 PM -21.2550 -46.5360 352° North 504 580 33,000  Level FlightAware ADS-B
Wed 08:43:17 PM -21.1630 -46.5500 352° North 503 579 33,000  Level FlightAware ADS-B
Wed 08:44:02 PM -21.0640 -46.5650 352° North 502 578 33,000  Level FlightAware ADS-B
Wed 08:44:47 PM -20.9560 -46.5810 352° North 503 579 33,000  Level FlightAware ADS-B
Wed 08:45:47 PM -20.8220 -46.6010 352° North 503 579 33,000  Level FlightAware ADS-B
Wed 08:46:37 PM -20.6990 -46.6190 352° North 501 577 33,000  Level FlightAware ADS-B
Wed 08:47:17 PM -20.6050 -46.6330 352° North 502 578 33,000  Level FlightAware ADS-B
Wed 08:47:57 PM -20.5590 -46.6400 352° North 504 580 33,000  Level FlightAware ADS-B
Wed 08:48:42 PM -20.4110 -46.6620 352° North 504 580 33,000  Level FlightAware ADS-B
Wed 08:49:37 PM -20.2870 -46.6800 352° North 505 581 33,000  Level FlightAware ADS-B
Wed 08:50:17 PM -20.2440 -46.6860 353° North 510 587 33,000  Level FlightAware ADS-B
Wed 08:51:02 PM -20.1340 -46.7030 352° North 511 588 33,000  Level FlightAware ADS-B
Wed 08:51:57 PM -20.0130 -46.7210 352° North 511 588 33,000  Level FlightAware ADS-B
Wed 08:52:42 PM -19.9000 -46.7370 352° North 512 589 33,000  Level FlightAware ADS-B
Wed 08:53:22 PM -19.8120 -46.7500 352° North 512 589 33,000  Level FlightAware ADS-B
Wed 08:54:17 PM -19.6900 -46.7680 352° North 511 588 33,000  Level FlightAware ADS-B
Wed 08:55:12 PM -19.5470 -46.7890 352° North 509 586 33,000  Level FlightAware ADS-B
Wed 08:55:52 PM -19.4520 -46.8030 352° North 509 586 33,000  Level FlightAware ADS-B
Wed 08:56:27 PM -19.3760 -46.8140 352° North 510 587 33,000  Level FlightAware ADS-B
Wed 08:57:32 PM -19.2270 -46.8360 352° North 509 586 33,000  Level FlightAware ADS-B
Wed 08:59:22 PM -18.9740 -46.8730 352° North 511 588 33,000  Level FlightAware ADS-B
Wed 09:00:02 PM -18.8750 -46.8870 352° North 511 588 33,000  Level FlightAware ADS-B
Wed 09:00:52 PM -18.7540 -46.9050 352° North 510 587 33,000  Level FlightAware ADS-B
Wed 09:01:32 PM -18.6740 -46.9170 352° North 510 587 33,000  Level FlightAware ADS-B
Wed 09:02:12 PM -18.5950 -46.9280 352° North 510 587 33,000  Level FlightAware ADS-B
Wed 09:02:52 PM -18.5150 -46.9400 352° North 510 587 33,000  Level FlightAware ADS-B
Wed 09:03:32 PM -18.4360 -46.9520 352° North 510 587 33,000  Level FlightAware ADS-B
Wed 09:04:12 PM -18.3560 -46.9640 352° North 510 587 33,000  Level FlightAware ADS-B
Wed 09:05:02 PM -18.2570 -46.9780 352° North 510 587 33,000  Level FlightAware ADS-B
Wed 09:05:42 PM -18.1780 -46.9900 352° North 510 587 33,000  Level FlightAware ADS-B
Wed 09:06:22 PM -18.0980 -47.0020 352° North 510 587 33,000  Level FlightAware ADS-B
Wed 09:07:02 PM -18.0190 -47.0140 352° North 510 587 33,000  Level FlightAware ADS-B
Wed 09:07:42 PM -17.9390 -47.0250 353° North 510 587 33,000  Level FlightAware ADS-B
Wed 09:08:32 PM -17.8400 -47.0400 352° North 510 587 33,000  Level FlightAware ADS-B
Wed 09:09:12 PM -17.7610 -47.0520 352° North 510 587 33,000  Level FlightAware ADS-B
Wed 09:09:52 PM -17.6810 -47.0630 353° North 510 587 33,000 126 Level FlightAware ADS-B
Wed 09:12:00 PM -17.4334 -47.1701 338° Northwest  Level Estimated
Wed 09:13:00 PM -17.3174 -47.2202 338° Northwest  Level Estimated
Wed 09:14:00 PM -17.2013 -47.2702 338° Northwest  Level Estimated
Wed 09:15:00 PM -17.0852 -47.3202 338° Northwest  Level Estimated
Wed 09:16:00 PM -16.9691 -47.3701 338° Northwest  Level Estimated
Wed 09:17:00 PM -16.8530 -47.4200 338° Northwest  Level Estimated
Wed 09:17:07 PM -16.5440 -47.6960 338° Northwest 511 588 34,000  Level FlightAware ADS-B
Wed 09:17:42 PM -16.4760 -47.7320 333° Northwest 511 588 34,000  Level FlightAware ADS-B
Wed 09:18:32 PM -16.3660 -47.7900 333° Northwest 511 588 34,000  Level FlightAware ADS-B
Wed 09:19:12 PM -16.2850 -47.8330 333° Northwest 512 589 34,000  Level FlightAware ADS-B
Wed 09:19:57 PM -16.1830 -47.8870 333° Northwest 514 592 34,000  Level FlightAware ADS-B
Wed 09:20:37 PM -16.1050 -47.9290 333° Northwest 512 589 34,000  Level FlightAware ADS-B
Wed 09:21:22 PM -16.0230 -47.9740 332° Northwest 512 589 34,000  Level FlightAware ADS-B
Wed 09:22:02 PM -15.9250 -48.0240 334° Northwest 511 588 34,000  Level FlightAware ADS-B
Wed 09:22:42 PM -15.8360 -48.0710 333° Northwest 506 582 34,000  Level FlightAware ADS-B
Wed 09:23:17 PM -15.7680 -48.1060 334° Northwest 504 580 34,000  Level FlightAware ADS-B
Wed 09:24:02 PM -15.6730 -48.1560 333° Northwest 504 580 34,000  Level FlightAware ADS-B
Wed 09:24:52 PM -15.5670 -48.2120 333° Northwest 501 577 34,000  Level FlightAware ADS-B
Wed 09:25:32 PM -15.4840 -48.2560 333° Northwest 499 574 34,000  Level FlightAware ADS-B
Wed 09:26:07 PM -15.4110 -48.2940 333° Northwest 498 573 34,000  Level FlightAware ADS-B
Wed 09:26:52 PM -15.3190 -48.3420 333° Northwest 499 574 34,000  Level FlightAware ADS-B
Wed 09:27:42 PM -15.2200 -48.3940 333° Northwest 500 575 34,000  Level FlightAware ADS-B
Wed 09:28:22 PM -15.1360 -48.4380 333° Northwest 501 577 34,000  Level FlightAware ADS-B
Wed 09:29:02 PM -15.0480 -48.4840 333° Northwest 500 575 34,000  Level FlightAware ADS-B
Wed 09:29:47 PM -14.9620 -48.5290 333° Northwest 499 574 34,000  Level FlightAware ADS-B
Wed 09:30:27 PM -14.8790 -48.5720 333° Northwest 499 574 34,000  Level FlightAware ADS-B
Wed 09:31:12 PM -14.7950 -48.6160 333° Northwest 499 574 34,000  Level FlightAware ADS-B
Wed 09:31:47 PM -14.7270 -48.6520 333° Northwest 499 574 34,000  Level FlightAware ADS-B
Wed 09:32:27 PM -14.6570 -48.6890 333° Northwest 499 574 34,000  Level FlightAware ADS-B
Wed 09:33:12 PM -14.5340 -48.7520 334° Northwest 494 568 34,000  Level FlightAware ADS-B
Wed 09:33:57 PM -14.4530 -48.7950 333° Northwest 494 568 34,000  Level FlightAware ADS-B
Wed 09:34:37 PM -14.3840 -48.8310 333° Northwest 494 568 34,000  Level FlightAware ADS-B
Wed 09:35:17 PM -14.3140 -48.8680 333° Northwest 494 568 34,000  Level FlightAware ADS-B
Wed 09:35:57 PM -14.2450 -48.9040 333° Northwest 494 568 34,000  Level FlightAware ADS-B
Wed 09:36:47 PM -14.1590 -48.9500 333° Northwest 494 568 34,000  Level FlightAware ADS-B
Wed 09:37:27 PM -14.0890 -48.9860 333° Northwest 494 568 34,000  Level FlightAware ADS-B
Wed 09:38:07 PM -14.0200 -49.0220 333° Northwest 494 568 34,000  Level FlightAware ADS-B
Wed 09:38:47 PM -13.9510 -49.0590 333° Northwest 494 568 34,000  Level FlightAware ADS-B
Wed 09:39:27 PM -13.8820 -49.0950 333° Northwest 494 568 34,000  Level FlightAware ADS-B
Wed 09:40:17 PM -13.7950 -49.1400 333° Northwest 494 568 34,000  Level FlightAware ADS-B
Wed 09:40:57 PM -13.7260 -49.1770 332° Northwest 494 568 34,000  Level FlightAware ADS-B
Wed 09:41:37 PM -13.6570 -49.2130 333° Northwest 494 568 34,000  Level FlightAware ADS-B
Wed 09:42:17 PM -13.5870 -49.2490 333° Northwest 494 568 34,000  Level FlightAware ADS-B
Wed 09:42:57 PM -13.5180 -49.2860 332° Northwest 494 568 34,000  Level FlightAware ADS-B
Wed 09:45:00 PM -13.2787 -49.3833 338° Northwest  Level Estimated
Wed 09:46:00 PM -13.1620 -49.4307 338° Northwest  Level Estimated
Wed 09:46:12 PM -12.9440 -49.5730 338° Northwest 498 573 34,000  Level FlightAware ADS-B
Wed 09:46:57 PM -12.8600 -49.6160 333° Northwest 498 573 34,000  Level FlightAware ADS-B
Wed 09:47:37 PM -12.7900 -49.6530 333° Northwest 498 573 34,000  Level FlightAware ADS-B
Wed 09:48:17 PM -12.7210 -49.6890 333° Northwest 498 573 34,000  Level FlightAware ADS-B
Wed 09:48:47 PM -12.9440 -49.5730 153° Southeast 34,000  Level FlightAware ADS-B
Wed 09:51:00 PM -12.6851 -49.6775 338° Northwest  Level Estimated
Wed 09:52:00 PM -12.5683 -49.7246 339° North  Level Estimated
Wed 09:53:00 PM -12.4514 -49.7717 339° North  Level Estimated
Wed 09:53:22 PM -12.1200 -49.9940 339° North 497 572 34,000  Level FlightAware ADS-B
Wed 09:54:12 PM -12.0330 -50.0390 333° Northwest 497 572 34,000  Level FlightAware ADS-B
Wed 09:54:52 PM -11.8700 -50.1200 334° Northwest 498 573 34,000  Level FlightAware ADS-B
Wed 09:55:32 PM -11.7900 -50.1620 333° Northwest 498 573 34,000  Level FlightAware ADS-B
Wed 09:56:12 PM -11.7200 -50.1980 333° Northwest 498 573 34,000  Level FlightAware ADS-B
Wed 09:56:47 PM -11.8560 -50.1270 153° Southeast 34,000  Level FlightAware ADS-B
Wed 09:57:22 PM -11.5750 -50.2690 334° Northwest 492 566 34,000  Level FlightAware ADS-B
Wed 09:58:07 PM -11.4690 -50.3240 333° Northwest 492 566 34,000  Level FlightAware ADS-B
Wed 09:59:02 PM -11.3580 -50.3800 334° Northwest 494 568 34,000  Level FlightAware ADS-B
Wed 09:59:57 PM -11.2440 -50.4380 333° Northwest 491 565 34,000  Level FlightAware ADS-B
Wed 10:00:37 PM -11.1750 -50.4730 334° Northwest 491 565 34,000  Level FlightAware ADS-B
Wed 10:01:17 PM -11.0800 -50.5200 334° Northwest 489 563 34,000  Level FlightAware ADS-B
Wed 10:02:22 PM -10.9400 -50.5900 334° Northwest 490 564 34,000  Level FlightAware ADS-B
Wed 10:03:02 PM -10.8690 -50.6260 334° Northwest 491 565 34,000  Level FlightAware ADS-B
Wed 10:03:42 PM -10.7890 -50.6660 334° Northwest 493 567 34,000  Level FlightAware ADS-B
Wed 10:04:22 PM -10.7010 -50.7110 333° Northwest 494 568 34,000  Level FlightAware ADS-B
Wed 10:05:22 PM -10.5880 -50.7680 334° Northwest 496 571 34,000  Level FlightAware ADS-B
Wed 10:06:02 PM -10.5190 -50.8040 333° Northwest 496 571 34,000  Level FlightAware ADS-B
Wed 10:06:42 PM -10.4490 -50.8400 333° Northwest 496 571 34,000  Level FlightAware ADS-B
Wed 10:07:22 PM -10.3800 -50.8760 333° Northwest 496 571 34,000  Level FlightAware ADS-B
Wed 10:08:02 PM -10.3100 -50.9120 333° Northwest 496 571 34,000  Level FlightAware ADS-B
Wed 10:08:42 PM -10.1540 -50.9700 340° North 495 570 34,000  Level FlightAware ADS-B
Wed 10:09:32 PM -10.1170 -50.9870 336° Northwest 491 565 34,000  Level FlightAware ADS-B
Wed 10:10:17 PM -10.0350 -51.0260 335° Northwest 491 565 34,000  Level FlightAware ADS-B
Wed 10:10:52 PM -10.0720 -51.0090 156° South 491 565 34,000  Level FlightAware ADS-B
Wed 10:11:42 PM -9.9840 -51.0500 335° Northwest 491 565 34,000  Level FlightAware ADS-B
Wed 10:12:22 PM -9.9140 -51.0840 334° Northwest 491 565 34,000  Level FlightAware ADS-B
Wed 10:13:02 PM -9.8440 -51.1170 335° Northwest 491 565 34,000  Level FlightAware ADS-B
Wed 10:13:42 PM -9.7740 -51.1500 335° Northwest 491 565 34,000  Level FlightAware ADS-B
Wed 10:14:22 PM -9.7040 -51.1830 335° Northwest 491 565 34,000  Level FlightAware ADS-B
Wed 10:15:02 PM -9.6340 -51.2160 335° Northwest 491 565 34,000  Level FlightAware ADS-B
Wed 10:15:52 PM -9.5470 -51.2570 335° Northwest 491 565 34,000  Level FlightAware ADS-B
Wed 10:16:32 PM -9.4770 -51.2900 335° Northwest 491 565 34,000  Level FlightAware ADS-B
Wed 10:17:12 PM -9.4070 -51.3240 334° Northwest 491 565 34,000  Level FlightAware ADS-B
Wed 10:17:52 PM -9.3370 -51.3570 335° Northwest 491 565 34,000  Level FlightAware ADS-B
Wed 10:18:32 PM -9.2670 -51.3900 335° Northwest 491 565 34,000  Level FlightAware ADS-B
Wed 10:19:22 PM -9.1790 -51.4310 335° Northwest 491 565 34,000  Level FlightAware ADS-B
Wed 10:20:02 PM -9.1090 -51.4640 335° Northwest 491 565 34,000  Level FlightAware ADS-B
Wed 10:22:00 PM -8.8784 -51.5532 339° North  Level Estimated
Wed 10:23:00 PM -8.7611 -51.5985 339° North  Level Estimated
Wed 10:24:00 PM -8.6438 -51.6437 339° North  Level Estimated
Wed 10:25:00 PM -8.5265 -51.6890 339° North  Level Estimated
Wed 10:26:00 PM -8.4092 -51.7342 339° North  Level Estimated
Wed 10:27:00 PM -8.2919 -51.7794 339° North  Level Estimated
Wed 10:28:00 PM -8.1746 -51.8245 339° North  Level Estimated
Wed 10:29:00 PM -8.0573 -51.8697 339° North  Level Estimated
Wed 10:30:00 PM -7.9400 -51.9148 339° North  Level Estimated
Wed 10:31:00 PM -7.8227 -51.9599 339° North  Level Estimated
Wed 10:32:00 PM -7.7053 -52.0049 339° North  Level Estimated
Wed 10:33:00 PM -7.5880 -52.0499 339° North  Level Estimated
Wed 10:34:00 PM -7.4707 -52.0949 339° North  Level Estimated
Wed 10:35:00 PM -7.3534 -52.1399 339° North  Level Estimated
Wed 10:36:00 PM -7.2360 -52.1849 339° North  Level Estimated
Wed 10:37:00 PM -7.1187 -52.2298 339° North  Level Estimated
Wed 10:38:00 PM -7.0013 -52.2747 339° North  Level Estimated
Wed 10:39:00 PM -6.8840 -52.3196 339° North  Level Estimated
Wed 10:40:00 PM -6.7666 -52.3645 339° North  Level Estimated
Wed 10:41:00 PM -6.6492 -52.4093 339° North  Level Estimated
Wed 10:42:00 PM -6.5319 -52.4541 339° North  Level Estimated
Wed 10:43:00 PM -6.4145 -52.4989 339° North  Level Estimated
Wed 10:44:00 PM -6.2971 -52.5437 339° North  Level Estimated
Wed 10:45:00 PM -6.1797 -52.5885 339° North  Level Estimated
Wed 10:46:00 PM -6.0623 -52.6332 339° North  Level Estimated
Wed 10:47:00 PM -5.9450 -52.6779 339° North  Level Estimated
Wed 10:48:00 PM -5.8276 -52.7226 339° North  Level Estimated
Wed 10:49:00 PM -5.7102 -52.7673 339° North  Level Estimated
Wed 10:50:00 PM -5.5928 -52.8120 339° North  Level Estimated
Wed 10:51:00 PM -5.4754 -52.8566 339° North  Level Estimated
Wed 10:52:00 PM -5.3580 -52.9013 339° North  Level Estimated
Wed 10:53:00 PM -5.2406 -52.9459 339° North  Level Estimated
Wed 10:54:00 PM -5.1232 -52.9905 339° North  Level Estimated
Wed 10:55:00 PM -5.0058 -53.0350 339° North  Level Estimated
Wed 10:56:00 PM -4.8883 -53.0796 339° North  Level Estimated
Wed 10:57:00 PM -4.7709 -53.1242 339° North  Level Estimated
Wed 10:58:00 PM -4.6535 -53.1687 339° North  Level Estimated
Wed 10:59:00 PM -4.5361 -53.2132 339° North  Level Estimated
Wed 11:00:00 PM -4.4186 -53.2577 339° North  Level Estimated
Wed 11:01:00 PM -4.3012 -53.3022 339° North  Level Estimated
Wed 11:02:00 PM -4.1838 -53.3467 339° North  Level Estimated
Wed 11:03:00 PM -4.0663 -53.3911 339° North  Level Estimated
Wed 11:04:00 PM -3.9489 -53.4356 339° North  Level Estimated
Wed 11:05:00 PM -3.8314 -53.4800 339° North  Level Estimated
Wed 11:06:00 PM -3.7140 -53.5244 339° North  Level Estimated
Wed 11:07:00 PM -3.5966 -53.5689 339° North  Level Estimated
Wed 11:08:00 PM -3.4791 -53.6133 339° North  Level Estimated
Wed 11:09:00 PM -3.3617 -53.6576 339° North  Level Estimated
Wed 11:10:00 PM -3.2442 -53.7020 339° North  Level Estimated
Wed 11:11:00 PM -3.1268 -53.7464 339° North  Level Estimated
Wed 11:12:00 PM -3.0093 -53.7908 339° North  Level Estimated
Wed 11:13:00 PM -2.8918 -53.8351 339° North  Level Estimated
Wed 11:14:00 PM -2.7744 -53.8795 339° North  Level Estimated
Wed 11:15:00 PM -2.6569 -53.9238 339° North  Level Estimated
Wed 11:16:00 PM -2.5395 -53.9681 339° North  Level Estimated
Wed 11:17:00 PM -2.4220 -54.0124 339° North  Level Estimated
Wed 11:18:00 PM -2.3045 -54.0567 339° North  Level Estimated
Wed 11:19:00 PM -2.1871 -54.1010 339° North  Level Estimated
Wed 11:20:00 PM -2.0696 -54.1453 339° North  Level Estimated
Wed 11:21:00 PM -1.9521 -54.1896 339° North  Level Estimated
Wed 11:22:00 PM -1.8347 -54.2339 339° North  Level Estimated
Wed 11:23:00 PM -1.7172 -54.2781 339° North  Level Estimated
Wed 11:24:00 PM -1.5997 -54.3224 339° North  Level Estimated
Wed 11:25:00 PM -1.4822 -54.3667 339° North  Level Estimated
Wed 11:26:00 PM -1.3648 -54.4109 339° North  Level Estimated
Wed 11:27:00 PM -1.2473 -54.4552 339° North  Level Estimated
Wed 11:28:00 PM -1.1298 -54.4994 339° North  Level Estimated
Wed 11:29:00 PM -1.0123 -54.5437 339° North  Level Estimated
Wed 11:30:00 PM -0.8949 -54.5879 339° North  Level Estimated
Wed 11:31:00 PM -0.7774 -54.6322 339° North  Level Estimated
Wed 11:32:00 PM -0.6599 -54.6764 339° North  Level Estimated
Wed 11:33:00 PM -0.5424 -54.7206 339° North  Level Estimated
Wed 11:34:00 PM -0.4249 -54.7649 339° North  Level Estimated
Wed 11:35:00 PM -0.3074 -54.8091 339° North  Level Estimated
Wed 11:36:00 PM -0.1900 -54.8534 339° North  Level Estimated
Wed 11:37:00 PM -0.0725 -54.8976 339° North  Level Estimated
Wed 11:38:00 PM 0.0450 -54.9418 339° North  Level Estimated
Wed 11:39:00 PM 0.1625 -54.9860 339° North  Level Estimated
Wed 11:40:00 PM 0.2799 -55.0303 339° North  Level Estimated
Wed 11:41:00 PM 0.3974 -55.0745 339° North  Level Estimated
Wed 11:42:00 PM 0.5149 -55.1187 339° North  Level Estimated
Wed 11:43:00 PM 0.6324 -55.1630 339° North  Level Estimated
Wed 11:44:00 PM 0.7499 -55.2072 339° North  Level Estimated
Wed 11:45:00 PM 0.8673 -55.2514 339° North  Level Estimated
Wed 11:46:00 PM 0.9848 -55.2957 339° North  Level Estimated
Wed 11:47:00 PM 1.1023 -55.3399 339° North  Level Estimated
Wed 11:48:00 PM 1.2198 -55.3842 339° North  Level Estimated
Wed 11:49:00 PM 1.3373 -55.4284 339° North  Level Estimated
Wed 11:50:00 PM 1.4547 -55.4727 339° North  Level Estimated
Wed 11:51:00 PM 1.5722 -55.5170 339° North  Level Estimated
Wed 11:52:00 PM 1.6897 -55.5612 339° North  Level Estimated
Wed 11:53:00 PM 1.8072 -55.6055 339° North  Level Estimated
Wed 11:54:00 PM 1.9246 -55.6498 339° North  Level Estimated
Wed 11:55:00 PM 2.0421 -55.6941 339° North  Level Estimated
Wed 11:56:00 PM 2.1596 -55.7383 339° North  Level Estimated
Wed 11:57:00 PM 2.2770 -55.7826 339° North  Level Estimated
Wed 11:58:00 PM 2.3945 -55.8270 339° North  Level Estimated
Wed 11:59:00 PM 2.5120 -55.8713 339° North  Level Estimated
Thu 12:00:00 AM 2.6294 -55.9156 339° North  Level Estimated
Thu 12:01:00 AM 2.7469 -55.9599 339° North  Level Estimated
Thu 12:02:00 AM 2.8643 -56.0043 339° North  Level Estimated
Thu 12:03:00 AM 2.9818 -56.0486 339° North  Level Estimated
Thu 12:04:00 AM 3.0993 -56.0930 339° North  Level Estimated
Thu 12:05:00 AM 3.2167 -56.1373 339° North  Level Estimated
Thu 12:06:00 AM 3.3342 -56.1817 339° North  Level Estimated
Thu 12:07:00 AM 3.4516 -56.2261 339° North  Level Estimated
Thu 12:08:00 AM 3.5691 -56.2705 339° North  Level Estimated
Thu 12:09:00 AM 3.6865 -56.3149 339° North  Level Estimated
Thu 12:10:00 AM 3.8040 -56.3593 339° North  Level Estimated
Thu 12:11:00 AM 3.9214 -56.4038 339° North  Level Estimated
Thu 12:12:00 AM 4.0388 -56.4482 339° North  Level Estimated
Thu 12:13:00 AM 4.1563 -56.4927 339° North  Level Estimated
Thu 12:14:00 AM 4.2737 -56.5372 339° North  Level Estimated
Thu 12:15:00 AM 4.3911 -56.5816 339° North  Level Estimated
Thu 12:16:00 AM 4.5086 -56.6261 339° North  Level Estimated
Thu 12:17:00 AM 4.6260 -56.6707 339° North  Level Estimated
Thu 12:18:00 AM 4.7434 -56.7152 339° North  Level Estimated
Thu 12:19:00 AM 4.8608 -56.7597 339° North  Level Estimated
Thu 12:20:00 AM 4.9783 -56.8043 339° North  Level Estimated
Thu 12:21:00 AM 5.0957 -56.8489 339° North  Level Estimated
Thu 12:22:00 AM 5.2131 -56.8935 339° North  Level Estimated
Thu 12:23:00 AM 5.3305 -56.9381 339° North  Level Estimated
Thu 12:24:00 AM 5.4479 -56.9827 339° North  Level Estimated
Thu 12:25:00 AM 5.5653 -57.0273 339° North  Level Estimated
Thu 12:26:00 AM 5.6827 -57.0720 339° North  Level Estimated
Thu 12:27:00 AM 5.8001 -57.1167 339° North  Level Estimated
Thu 12:28:00 AM 5.9175 -57.1614 339° North  Level Estimated
Thu 12:29:00 AM 6.0349 -57.2061 339° North  Level Estimated
Thu 12:30:00 AM 6.1522 -57.2508 339° North  Level Estimated
Thu 12:31:00 AM 6.2696 -57.2956 339° North  Level Estimated
Thu 12:32:00 AM 6.3870 -57.3404 339° North  Level Estimated
Thu 12:33:00 AM 6.5044 -57.3852 339° North  Level Estimated
Thu 12:34:00 AM 6.6217 -57.4300 339° North  Level Estimated
Thu 12:35:00 AM 6.7391 -57.4748 339° North  Level Estimated
Thu 12:36:00 AM 6.8565 -57.5197 339° North  Level Estimated
Thu 12:37:00 AM 6.9738 -57.5646 339° North  Level Estimated
Thu 12:38:00 AM 7.0912 -57.6095 339° North  Level Estimated
Thu 12:39:00 AM 7.2085 -57.6544 339° North  Level Estimated
Thu 12:40:00 AM 7.3259 -57.6993 339° North  Level Estimated
Thu 12:41:00 AM 7.4432 -57.7443 339° North  Level Estimated
Thu 12:42:00 AM 7.5606 -57.7893 339° North  Level Estimated
Thu 12:43:00 AM 7.6779 -57.8343 339° North  Level Estimated
Thu 12:44:00 AM 7.7952 -57.8794 339° North  Level Estimated
Thu 12:45:00 AM 7.9125 -57.9245 339° North  Level Estimated
Thu 12:46:00 AM 8.0299 -57.9696 339° North  Level Estimated
Thu 12:47:00 AM 8.1472 -58.0147 339° North  Level Estimated
Thu 12:48:00 AM 8.2645 -58.0598 339° North  Level Estimated
Thu 12:49:00 AM 8.3818 -58.1050 339° North  Level Estimated
Thu 12:50:00 AM 8.4991 -58.1502 339° North  Level Estimated
Thu 12:51:00 AM 8.6164 -58.1955 339° North  Level Estimated
Thu 12:52:00 AM 8.7337 -58.2407 339° North  Level Estimated
Thu 12:53:00 AM 8.8509 -58.2860 339° North  Level Estimated
Thu 12:54:00 AM 8.9682 -58.3313 339° North  Level Estimated
Thu 12:55:00 AM 9.0855 -58.3767 339° North  Level Estimated
Thu 12:56:00 AM 9.2027 -58.4221 339° North  Level Estimated
Thu 12:57:00 AM 9.3200 -58.4675 339° North  Level Estimated
Thu 12:58:00 AM 9.4373 -58.5129 339° North  Level Estimated
Thu 12:59:00 AM 9.5545 -58.5584 339° North  Level Estimated
Thu 01:00:00 AM 9.6717 -58.6039 339° North  Level Estimated
Thu 01:01:00 AM 9.7890 -58.6494 339° North  Level Estimated
Thu 01:02:00 AM 9.9062 -58.6950 339° North  Level Estimated
Thu 01:03:00 AM 10.0234 -58.7406 339° North  Level Estimated
Thu 01:04:00 AM 10.1406 -58.7862 339° North  Level Estimated
Thu 01:05:00 AM 10.2578 -58.8319 339° North  Level Estimated
Thu 01:06:00 AM 10.3750 -58.8776 339° North  Level Estimated
Thu 01:07:00 AM 10.4923 -58.9233 339° North  Level Estimated
Thu 01:08:00 AM 10.6094 -58.9691 339° North  Level Estimated
Thu 01:09:00 AM 10.7266 -59.0149 339° North  Level Estimated
Thu 01:10:00 AM 10.8438 -59.0607 339° North  Level Estimated
Thu 01:11:00 AM 10.9610 -59.1066 339° North  Level Estimated
Thu 01:12:00 AM 11.0781 -59.1525 339° North  Level Estimated
Thu 01:13:00 AM 11.1953 -59.1984 339° North  Level Estimated
Thu 01:14:00 AM 11.3124 -59.2444 339° North  Level Estimated
Thu 01:15:00 AM 11.4296 -59.2904 339° North  Level Estimated
Thu 01:16:00 AM 11.5467 -59.3365 339° North  Level Estimated
Thu 01:16:57 AM 12.3000 -62.2390 339° North 491 565 34,000  Level FlightAware ADS-B
Thu 01:17:00 AM 11.6638 -59.3826 339° North  Level Estimated
Thu 01:17:42 AM 12.3840 -62.2980 326° Northwest 489 563 34,000  Level FlightAware ADS-B
Thu 01:18:22 AM 12.4550 -62.3470 326° Northwest 488 562 34,000  Level FlightAware ADS-B
Thu 01:19:02 AM 12.5360 -62.4040 326° Northwest 487 560 34,000  Level FlightAware ADS-B
Thu 01:19:42 AM 12.6100 -62.4550 326° Northwest 486 559 34,000  Level FlightAware ADS-B
Thu 01:20:22 AM 12.6200 -62.4630 322° Northwest 486 559 34,000  Level FlightAware ADS-B
Thu 01:21:37 AM 12.8230 -62.6050 326° Northwest 488 562 34,000  Level FlightAware ADS-B
Thu 01:22:22 AM 12.9100 -62.6650 326° Northwest 489 563 34,000  Level FlightAware ADS-B
Thu 01:23:12 AM 12.9970 -62.7270 325° Northwest 489 563 34,000  Level FlightAware ADS-B
Thu 01:23:52 AM 13.0720 -62.7780 326° Northwest 491 565 34,000  Level FlightAware ADS-B
Thu 01:25:17 AM 13.2310 -62.8910 325° Northwest 490 564 34,000  Level FlightAware ADS-B
Thu 01:26:32 AM 13.3740 -62.9910 326° Northwest 486 559 34,000  Level FlightAware ADS-B
Thu 01:27:27 AM 13.4790 -63.0650 326° Northwest 486 559 34,000  Level FlightAware ADS-B
Thu 01:28:37 AM 13.6080 -63.1560 326° Northwest 479 551 34,000  Level FlightAware ADS-B
Thu 01:29:17 AM 13.6740 -63.2020 326° Northwest 476 548 34,000  Level FlightAware ADS-B
Thu 01:30:57 AM 13.8550 -63.3310 320° Northwest 473 544 34,000  Level FlightAware ADS-B
Thu 01:31:00 AM 13.8386 -63.3452 320° Northwest  Level FlightAware Approximate
Thu 01:31:37 AM 13.9360 -63.3880 326° Northwest 473 544 34,000  Level FlightAware ADS-B
Thu 01:32:22 AM 14.0140 -63.4430 326° Northwest 472 543 34,000  Level FlightAware ADS-B
Thu 01:32:57 AM 14.0770 -63.4880 325° Northwest 472 543 34,000  Level FlightAware ADS-B
Thu 01:33:42 AM 14.1590 -63.5460 326° Northwest 473 544 34,000  Level FlightAware ADS-B
Thu 01:35:02 AM 14.3030 -63.6490 325° Northwest 473 544 34,000  Level FlightAware ADS-B
Thu 01:35:57 AM 14.4050 -63.7210 326° Northwest 473 544 34,000  Level FlightAware ADS-B
Thu 01:36:42 AM 14.4860 -63.7790 325° Northwest 476 548 34,000  Level FlightAware ADS-B
Thu 01:37:37 AM 14.5780 -63.8440 326° Northwest 476 548 34,000  Level FlightAware ADS-B
Thu 01:38:32 AM 14.6770 -63.9150 325° Northwest 477 549 34,000  Level FlightAware ADS-B
Thu 01:39:17 AM 14.7660 -63.9790 325° Northwest 475 547 34,000  Level FlightAware ADS-B
Thu 01:39:57 AM 14.8330 -64.0270 325° Northwest 475 547 34,000  Level FlightAware ADS-B
Thu 01:41:12 AM 14.9780 -64.1300 326° Northwest 476 548 34,000  Level FlightAware ADS-B
Thu 01:42:02 AM 15.0660 -64.1920 326° Northwest 479 551 34,000  Level FlightAware ADS-B
Thu 01:43:02 AM 15.1770 -64.2600 329° Northwest 485 558 34,000  Level FlightAware ADS-B
Thu 01:44:02 AM 15.2870 -64.3300 328° Northwest 482 555 34,000  Level FlightAware ADS-B
Thu 01:44:42 AM 15.3520 -64.3720 328° Northwest 482 555 34,000  Level FlightAware ADS-B
Thu 01:45:22 AM 15.4160 -64.4130 328° Northwest 482 555 34,000  Level FlightAware ADS-B
Thu 01:46:02 AM 15.4800 -64.4550 328° Northwest 482 555 34,000  Level FlightAware ADS-B
Thu 01:46:52 AM 15.5610 -64.5070 328° Northwest 482 555 34,000  Level FlightAware ADS-B
Thu 01:47:32 AM 15.6250 -64.5490 328° Northwest 482 555 34,000  Level FlightAware ADS-B
Thu 01:48:12 AM 15.6890 -64.5910 328° Northwest 482 555 34,000  Level FlightAware ADS-B
Thu 01:48:52 AM 15.7540 -64.6320 329° Northwest 482 555 34,000  Level FlightAware ADS-B
Thu 01:49:32 AM 15.8180 -64.6740 328° Northwest 482 555 34,000  Level FlightAware ADS-B
Thu 01:50:22 AM 15.8980 -64.7260 328° Northwest 482 555 34,000  Level FlightAware ADS-B
Thu 01:51:02 AM 15.9630 -64.7680 328° Northwest 482 555 34,000  Level FlightAware ADS-B
Thu 01:51:42 AM 16.0270 -64.8100 328° Northwest 482 555 34,000  Level FlightAware ADS-B
Thu 01:52:22 AM 16.0910 -64.8520 328° Northwest 482 555 34,000  Level FlightAware ADS-B
Thu 01:53:02 AM 16.1560 -64.8940 328° Northwest 482 555 34,000  Level FlightAware ADS-B
Thu 01:53:50 AM 16.3833 -65.0500 328° Northwest 460 529 34,000  Level San Juan Center
Thu 01:54:50 AM 16.4833 -65.1167 327° Northwest 450 518 34,000  Level San Juan Center
Thu 01:55:51 AM 16.5667 -65.1833 323° Northwest 450 518 34,000  Level San Juan Center
Thu 02:01:17 AM 17.1750 -65.5730 323° Northwest 450 518 34,000  Level FlightAware ADS-B
Thu 02:02:02 AM 17.2580 -65.6260 329° Northwest 452 520 34,000  Level FlightAware ADS-B
Thu 02:02:42 AM 17.3310 -65.6740 328° Northwest 453 521 34,000  Level FlightAware ADS-B
Thu 02:03:22 AM 17.4030 -65.7200 329° Northwest 453 521 34,000  Level FlightAware ADS-B
Thu 02:04:07 AM 17.4810 -65.7700 329° Northwest 450 518 34,000  Level FlightAware ADS-B
Thu 02:04:47 AM 17.5520 -65.8160 328° Northwest 452 520 34,000  Level FlightAware ADS-B
Thu 02:05:27 AM 17.6240 -65.8630 328° Northwest 453 521 34,000 424 Level FlightAware ADS-B
Thu 02:06:12 AM 17.7050 -65.9150 329° Northwest 453 521 34,600 706 Climbing FlightAware ADS-B
Thu 02:06:52 AM 17.7770 -65.9620 328° Northwest 452 520 35,000 282 Climbing FlightAware ADS-B
Thu 02:07:37 AM 17.8560 -66.0130 328° Northwest 454 522 35,000  Level FlightAware ADS-B
Thu 02:08:17 AM 17.9280 -66.0600 328° Northwest 454 522 35,000  Level FlightAware ADS-B
Thu 02:09:02 AM 18.0100 -66.1130 328° Northwest 455 524 35,000 71 Level FlightAware ADS-B
Thu 02:09:42 AM 18.0810 -66.1600 328° Northwest 455 524 35,100 450 Climbing FlightAware ADS-B
Thu 02:10:22 AM 18.1540 -66.2070 329° Northwest 466 536 35,600 635 Climbing FlightAware ADS-B
Thu 02:11:07 AM 18.2360 -66.2600 328° Northwest 460 529 36,000 282 Climbing FlightAware ADS-B
Thu 02:11:47 AM 18.3080 -66.3070 328° Northwest 463 533 36,000  Level FlightAware ADS-B
Thu 02:12:32 AM 18.3930 -66.3630 328° Northwest 465 535 36,000  Level FlightAware ADS-B
Thu 02:13:12 AM 18.4650 -66.4100 328° Northwest 465 535 36,000  Level FlightAware ADS-B
Thu 02:13:52 AM 18.5370 -66.4600 327° Northwest 462 532 36,000  Level FlightAware ADS-B
Thu 02:14:37 AM 18.6140 -66.5160 325° Northwest 464 534 36,000  Level FlightAware ADS-B
Thu 02:15:17 AM 18.6850 -66.5670 326° Northwest 465 535 36,000  Level FlightAware ADS-B
Thu 02:15:57 AM 18.7580 -66.6190 326° Northwest 467 537 36,000  Level FlightAware ADS-B
Thu 02:16:42 AM 18.8400 -66.6770 326° Northwest 467 537 36,000  Level FlightAware ADS-B
Thu 02:17:22 AM 18.9120 -66.7280 326° Northwest 468 539 36,000  Level FlightAware ADS-B
Thu 02:18:07 AM 18.9910 -66.7850 326° Northwest 467 537 36,000  Level FlightAware ADS-B
Thu 02:18:47 AM 19.0640 -66.8360 327° Northwest 465 535 36,000  Level FlightAware ADS-B
Thu 02:19:27 AM 19.1340 -66.8870 325° Northwest 461 531 36,000  Level FlightAware ADS-B
Thu 02:20:12 AM 19.2150 -66.9450 326° Northwest 457 526 36,000  Level FlightAware ADS-B
Thu 02:20:57 AM 19.2920 -67.0000 326° Northwest 457 526 36,000  Level FlightAware ADS-B
Thu 02:21:37 AM 19.3610 -67.0500 326° Northwest 456 525 36,000  Level FlightAware ADS-B
Thu 02:22:17 AM 19.4310 -67.1000 326° Northwest 454 522 36,000  Level FlightAware ADS-B
Thu 02:23:02 AM 19.5120 -67.1580 326° Northwest 454 522 36,000  Level FlightAware ADS-B
Thu 02:23:42 AM 19.5820 -67.2080 326° Northwest 454 522 36,000  Level FlightAware ADS-B
Thu 02:24:27 AM 19.6570 -67.2630 325° Northwest 452 520 36,000  Level FlightAware ADS-B
Thu 02:25:07 AM 19.7210 -67.3090 326° Northwest 449 517 36,000  Level FlightAware ADS-B
Thu 02:25:47 AM 19.7960 -67.3630 326° Northwest 450 518 36,000  Level FlightAware ADS-B
Thu 02:26:42 AM 19.8860 -67.4290 325° Northwest 451 519 36,000  Level FlightAware ADS-B
Thu 02:27:17 AM 19.9520 -67.4760 326° Northwest 454 522 36,000  Level FlightAware ADS-B
Thu 02:28:02 AM 20.0190 -67.5260 325° Northwest 454 522 36,000  Level FlightAware ADS-B
Thu 02:28:42 AM 20.0780 -67.5700 325° Northwest 454 522 36,000  Level FlightAware ADS-B
Thu 02:29:22 AM 20.1670 -67.6320 327° Northwest 448 516 36,000  Level FlightAware ADS-B
Thu 02:30:07 AM 20.2340 -67.6820 325° Northwest 448 516 36,000  Level FlightAware ADS-B
Thu 02:30:47 AM 20.3130 -67.7380 326° Northwest 449 517 36,000  Level FlightAware ADS-B
Thu 02:31:37 AM 20.4000 -67.8020 325° Northwest 452 520 36,000  Level FlightAware ADS-B
Thu 02:32:27 AM 20.4780 -67.8600 325° Northwest 453 521 36,000  Level FlightAware ADS-B
Thu 02:33:32 AM 20.5990 -67.9480 326° Northwest 454 522 36,000  Level FlightAware ADS-B
Thu 02:34:12 AM 20.6700 -68.0000 326° Northwest 450 518 36,000  Level FlightAware ADS-B
Thu 02:34:52 AM 20.7300 -68.0440 326° Northwest 449 517 36,000  Level FlightAware ADS-B
Thu 02:35:32 AM 20.7880 -68.0870 325° Northwest 449 517 36,000  Level FlightAware ADS-B
Thu 02:36:12 AM 20.8450 -68.1310 324° Northwest 449 517 36,000  Level FlightAware ADS-B
Thu 02:37:02 AM 20.9180 -68.1850 325° Northwest 449 517 36,000  Level FlightAware ADS-B
Thu 02:37:42 AM 20.9760 -68.2280 325° Northwest 449 517 36,000  Level FlightAware ADS-B
Thu 02:38:22 AM 21.0330 -68.2720 324° Northwest 449 517 36,000  Level FlightAware ADS-B
Thu 02:39:02 AM 21.0910 -68.3150 325° Northwest 449 517 36,000  Level FlightAware ADS-B
Thu 02:39:42 AM 21.1490 -68.3590 325° Northwest 449 517 36,000  Level FlightAware ADS-B
Thu 02:40:32 AM 21.2210 -68.4130 325° Northwest 449 517 36,000  Level FlightAware ADS-B
Thu 02:41:12 AM 21.2790 -68.4560 325° Northwest 449 517 36,000  Level FlightAware ADS-B
Thu 02:41:52 AM 21.3370 -68.5000 325° Northwest 449 517 36,000  Level FlightAware ADS-B
Thu 02:42:32 AM 21.3950 -68.5430 325° Northwest 449 517 36,000  Level FlightAware ADS-B
Thu 02:43:12 AM 21.4530 -68.5870 325° Northwest 449 517 36,000  Level FlightAware ADS-B
Thu 02:44:02 AM 21.5250 -68.6410 325° Northwest 449 517 36,000  Level FlightAware ADS-B
Thu 02:46:00 AM 21.7714 -68.6959 348° North  Level Estimated
Thu 02:47:00 AM 21.8967 -68.7238 348° North  Level Estimated
Thu 02:48:00 AM 22.0219 -68.7519 348° North  Level Estimated
Thu 02:49:00 AM 22.1472 -68.7799 348° North  Level Estimated
Thu 02:50:00 AM 22.2724 -68.8081 348° North  Level Estimated
Thu 02:51:00 AM 22.3977 -68.8362 348° North  Level Estimated
Thu 02:52:00 AM 22.5229 -68.8644 348° North  Level Estimated
Thu 02:53:00 AM 22.6482 -68.8927 348° North  Level Estimated
Thu 02:54:00 AM 22.7734 -68.9210 348° North  Level Estimated
Thu 02:55:00 AM 22.8986 -68.9494 348° North  Level Estimated
Thu 02:56:00 AM 23.0239 -68.9779 348° North  Level Estimated
Thu 02:57:00 AM 23.1491 -69.0063 348° North  Level Estimated
Thu 02:58:00 AM 23.2743 -69.0349 348° North  Level Estimated
Thu 02:59:00 AM 23.3995 -69.0635 348° North  Level Estimated
Thu 03:00:00 AM 23.5247 -69.0921 348° North  Level Estimated
Thu 03:01:00 AM 23.6499 -69.1208 348° North  Level Estimated
Thu 03:02:00 AM 23.7751 -69.1496 348° North  Level Estimated
Thu 03:03:00 AM 23.9003 -69.1784 348° North  Level Estimated
Thu 03:04:00 AM 24.0255 -69.2072 348° North  Level Estimated
Thu 03:05:00 AM 24.1507 -69.2361 348° North  Level Estimated
Thu 03:06:00 AM 24.2759 -69.2651 348° North  Level Estimated
Thu 03:07:00 AM 24.4011 -69.2942 348° North  Level Estimated
Thu 03:08:00 AM 24.5262 -69.3232 348° North  Level Estimated
Thu 03:09:00 AM 24.6514 -69.3524 348° North  Level Estimated
Thu 03:10:00 AM 24.7765 -69.3816 348° North  Level Estimated
Thu 03:11:00 AM 24.9017 -69.4109 348° North  Level Estimated
Thu 03:11:31 AM 25.0000 -70.0500 348° North 478 550 36,000  Level New York Oceanic (ODAPS)
Thu 03:12:00 AM 25.0249 -69.4398 348° North  Level Estimated
Thu 03:13:00 AM 25.1481 -69.4687 348° North  Level Estimated
Thu 03:14:00 AM 25.2733 -69.4982 348° North  Level Estimated
Thu 03:15:00 AM 25.3984 -69.5277 348° North  Level Estimated
Thu 03:16:00 AM 25.5235 -69.5572 348° North  Level Estimated
Thu 03:17:00 AM 25.9105 -70.2621 348° North 478 550 36,000  Level FlightAware Transoceanic
Thu 03:17:30 AM 25.8500 -70.2500 348° North 474 545 36,000  Level New York Oceanic (ODAPS)
Thu 03:18:00 AM 26.0406 -70.2927 348° North 478 550 36,000  Level FlightAware Transoceanic
Thu 03:19:00 AM 26.1706 -70.3233 348° North 478 550 36,000  Level FlightAware Transoceanic
Thu 03:20:00 AM 26.3007 -70.3540 348° North 478 550 36,000  Level FlightAware Transoceanic
Thu 03:21:00 AM 26.4307 -70.3848 348° North 478 550 36,000  Level FlightAware Transoceanic
Thu 03:22:00 AM 26.5607 -70.4156 348° North 478 550 36,000  Level FlightAware Transoceanic
Thu 03:23:00 AM 26.6460 -70.4375 348° North 474 545 36,000  Level FlightAware Transoceanic
Thu 03:24:00 AM 26.7787 -70.4690 348° North 474 545 36,000  Level FlightAware Transoceanic
Thu 03:25:00 AM 26.9113 -70.5005 348° North 474 545 36,000  Level FlightAware Transoceanic
Thu 03:26:00 AM 27.0439 -70.5322 348° North 474 545 36,000  Level FlightAware Transoceanic
Thu 03:27:00 AM 27.1766 -70.5639 348° North 474 545 36,000  Level FlightAware Transoceanic
Thu 03:28:00 AM 27.3092 -70.5957 348° North 474 545 36,000  Level FlightAware Transoceanic
Thu 03:29:00 AM 27.4418 -70.6276 348° North 474 545 36,000  Level FlightAware Transoceanic
Thu 03:30:00 AM 27.5744 -70.6595 348° North 474 545 36,000  Level FlightAware Transoceanic
Thu 03:30:48 AM 27.6500 -70.6667 347° North 465 535 36,000  Level New York Oceanic (ODAPS)
Thu 03:31:00 AM 27.7070 -70.6915 348° North 474 545 36,000  Level FlightAware Transoceanic
Thu 03:32:00 AM 27.8396 -70.7236 348° North 474 545 36,000  Level FlightAware Transoceanic
Thu 03:33:00 AM 27.9722 -70.7558 348° North 474 545 36,000  Level FlightAware Transoceanic
Thu 03:34:00 AM 28.1047 -70.7881 348° North 474 545 36,000  Level FlightAware Transoceanic
Thu 03:35:00 AM 28.2373 -70.8204 348° North 474 545 36,000  Level FlightAware Transoceanic
Thu 03:36:00 AM 28.3699 -70.8528 348° North 474 545 36,000  Level FlightAware Transoceanic
Thu 03:37:00 AM 28.4834 -70.8770 347° North 465 535 36,000  Level FlightAware Transoceanic
Thu 03:38:00 AM 28.6223 -70.9123 347° North 465 535 36,000  Level FlightAware Transoceanic
Thu 03:39:00 AM 28.7612 -70.9478 347° North 465 535 36,000  Level FlightAware Transoceanic
Thu 03:40:00 AM 28.9000 -70.9833 348° North 465 535 36,000  Level FlightAware Transoceanic
Thu 03:40:58 AM 28.8500 -70.9667 344° North 449 517 36,000  Level New York Oceanic (ODAPS)
Thu 03:41:00 AM 29.0157 -71.0117 348° North 465 535 36,000  Level FlightAware Transoceanic
Thu 03:42:00 AM 29.1313 -71.0402 348° North 465 535 36,000  Level FlightAware Transoceanic
Thu 03:43:00 AM 29.2470 -71.0688 348° North 465 535 36,000  Level FlightAware Transoceanic
Thu 03:44:00 AM 29.3626 -71.0974 348° North 465 535 36,000  Level FlightAware Transoceanic
Thu 03:44:43 AM 29.3667 -71.1000 348° North 437 503 36,000  Level New York Oceanic (ODAPS)
Thu 03:45:00 AM 29.4783 -71.1260 348° North 465 535 36,000  Level FlightAware Transoceanic
Thu 03:46:00 AM 29.5940 -71.1548 348° North 465 535 36,000  Level FlightAware Transoceanic
Thu 03:47:00 AM 29.6270 -71.1630 348° North 449 517 36,000  Level FlightAware Transoceanic
Thu 03:48:00 AM 29.7481 -71.1932 348° North 449 517 36,000  Level FlightAware Transoceanic
Thu 03:49:00 AM 29.8693 -71.2234 348° North 449 517 36,000  Level FlightAware Transoceanic
Thu 03:50:00 AM 29.9904 -71.2538 348° North 449 517 36,000  Level FlightAware Transoceanic
Thu 03:51:00 AM 30.1754 -71.3016 348° North 437 503 36,000  Level FlightAware Transoceanic
Thu 03:52:00 AM 30.2909 -71.3307 348° North 437 503 36,000  Level FlightAware Transoceanic
Thu 03:53:00 AM 30.4064 -71.3598 348° North 437 503 36,000  Level FlightAware Transoceanic
Thu 03:54:00 AM 30.5219 -71.3891 348° North 437 503 36,000  Level FlightAware Transoceanic
Thu 03:55:00 AM 30.6374 -71.4183 348° North 437 503 36,000  Level FlightAware Transoceanic
Thu 03:56:00 AM 30.7528 -71.4477 348° North 437 503 36,000  Level FlightAware Transoceanic
Thu 03:57:00 AM 30.8683 -71.4771 348° North 437 503 36,000  Level FlightAware Transoceanic
Thu 03:58:00 AM 30.9838 -71.5066 348° North 437 503 36,000  Level FlightAware Transoceanic
Thu 03:58:35 AM 31.0167 -71.5167 348° North 423 487 36,000  Level New York Oceanic (ODAPS)
Thu 03:59:00 AM 31.0992 -71.5362 348° North 437 503 36,000  Level FlightAware Transoceanic
Thu 04:00:00 AM 31.2147 -71.5658 348° North 437 503 36,000  Level FlightAware Transoceanic
Thu 04:01:00 AM 31.3301 -71.5955 348° North 437 503 36,000  Level FlightAware Transoceanic
Thu 04:02:00 AM 31.4456 -71.6253 348° North 437 503 36,000  Level FlightAware Transoceanic
Thu 04:03:00 AM 31.5610 -71.6552 348° North 437 503 36,000  Level FlightAware Transoceanic
Thu 04:04:00 AM 31.6764 -71.6851 348° North 437 503 36,000  Level FlightAware Transoceanic
Thu 04:05:00 AM 31.8159 -71.7225 348° North 423 487 36,000  Level FlightAware Transoceanic
Thu 04:06:00 AM 31.9300 -71.7523 348° North 423 487 36,000  Level FlightAware Transoceanic
Thu 04:07:00 AM 32.0441 -71.7820 348° North 423 487 36,000  Level FlightAware Transoceanic
Thu 04:07:52 AM 32.0500 -71.7833 348° North 417 480 36,000  Level New York Oceanic (ODAPS)
Thu 04:08:00 AM 32.1583 -71.8119 347° North 423 487 36,000  Level FlightAware Transoceanic
Thu 04:09:00 AM 32.2724 -71.8418 347° North 423 487 36,000  Level FlightAware Transoceanic
Thu 04:10:00 AM 32.3865 -71.8718 347° North 423 487 36,000  Level FlightAware Transoceanic
Thu 04:11:00 AM 32.5006 -71.9019 347° North 423 487 36,000  Level FlightAware Transoceanic
Thu 04:12:00 AM 32.6147 -71.9320 347° North 423 487 36,000  Level FlightAware Transoceanic
Thu 04:12:25 AM 32.6000 -71.9333 348° North 407 468 36,000  Level New York Oceanic (ODAPS)
Thu 04:13:00 AM 32.7288 -71.9622 347° North 423 487 36,000  Level FlightAware Transoceanic
Thu 04:14:00 AM 32.8463 -71.9933 347° North 417 480 36,000  Level FlightAware Transoceanic
Thu 04:15:00 AM 32.9601 -72.0237 347° North 417 480 36,000  Level FlightAware Transoceanic
Thu 04:16:00 AM 33.0738 -72.0540 347° North 417 480 36,000  Level FlightAware Transoceanic
Thu 04:16:34 AM 33.0333 -72.0500 348° North 407 468 36,000  Level New York Oceanic (ODAPS)
Thu 04:17:00 AM 33.1875 -72.0845 347° North 417 480 36,000  Level FlightAware Transoceanic
Thu 04:18:00 AM 33.2918 -72.1152 348° North 407 468 36,000  Level FlightAware Transoceanic
Thu 04:19:00 AM 33.4071 -72.1458 347° North 407 468 36,000  Level FlightAware Transoceanic
Thu 04:20:00 AM 33.5223 -72.1765 347° North 407 468 36,000  Level FlightAware Transoceanic
Thu 04:21:00 AM 33.6376 -72.2072 347° North 407 468 36,000  Level FlightAware Transoceanic
Thu 04:22:00 AM 33.6667 -72.2160 348° North 407 468 36,000  Level FlightAware Transoceanic
Thu 04:23:00 AM 33.7723 -72.2440 348° North 407 468 36,000  Level FlightAware Transoceanic
Thu 04:24:00 AM 33.8778 -72.2719 348° North 407 468 36,000  Level FlightAware Transoceanic
Thu 04:25:00 AM 33.9833 -72.3000 355° North 407 468 36,000  Level FlightAware Transoceanic
Thu 04:25:16 AM 33.9833 -72.3000 355° North 416 479 36,000  Level New York Oceanic (ODAPS)
Thu 04:26:00 AM 34.1019 -72.3128 355° North 407 468 36,000  Level FlightAware Transoceanic
Thu 04:26:16 AM 34.1333 -72.3167 355° North 421 484 36,000  Level New York Oceanic (ODAPS)
Thu 04:27:00 AM 34.2204 -72.3257 355° North 407 468 36,000  Level FlightAware Transoceanic
Thu 04:28:00 AM 34.3389 -72.3386 355° North 407 468 36,000  Level FlightAware Transoceanic
Thu 04:28:56 AM 34.4847 -72.3442 355° North 465 535 36,000  Level New York Center
Thu 04:29:00 AM 34.4574 -72.3515 355° North 407 468 36,000 -95 Level FlightAware Transoceanic
Thu 04:29:59 AM 34.5844 -72.3589 353° North 416 479 35,900  Descending New York Center
Thu 04:30:00 AM 34.5759 -72.3644 355° North 407 468 36,000  Climbing FlightAware Transoceanic
Thu 04:30:57 AM 34.7117 -72.3714 355° North 416 479 35,900  Descending New York Center
Thu 04:31:00 AM 34.6945 -72.3774 355° North 416 479 36,000 102 Climbing FlightAware Transoceanic
Thu 04:31:56 AM 34.8261 -72.3839 355° North 421 484 36,000  Level New York Center
Thu 04:32:00 AM 34.8208 -72.3915 355° North 421 484 36,000  Level FlightAware Transoceanic
Thu 04:32:56 AM 34.9492 -72.3892 358° North 414 476 36,000  Level New York Center
Thu 04:33:57 AM 35.0594 -72.4067 353° North 414 476 36,000  Level New York Center
Thu 04:34:58 AM 35.1742 -72.4064 360° North 409 471 36,000  Level New York Center
Thu 04:35:56 AM 35.2869 -72.4064 360° North 404 465 36,000  Level New York Center
Thu 04:36:58 AM 35.4039 -72.4011 North 404 465 36,000  Level New York Center
Thu 04:37:58 AM 35.5164 -72.4036 359° North 409 471 36,000 -50 Level New York Center
Thu 04:38:58 AM 35.6333 -72.4036 360° North 409 471 35,900 -51 Descending New York Center
Thu 04:39:56 AM 35.7500 -72.4061 359° North 409 471 35,900 50 Level New York Center
Thu 04:40:57 AM 35.8644 -72.4186 355° North 414 476 36,000  Climbing New York Center
Thu 04:41:58 AM 35.9833 -72.4317 355° North 419 482 35,900 -50 Descending New York Center
Thu 04:42:56 AM 36.1000 -72.4444 355° North 419 482 35,900  Level New York Center
Thu 04:43:59 AM 36.1917 -72.4542 355° North 419 482 35,900  Level New York Center
Thu 04:44:58 AM 36.3353 -72.4678 356° North 424 488 35,900 51 Level New York Center
Thu 04:45:56 AM 36.4583 -72.4808 355° North 424 488 36,000 15 Climbing New York Center
Thu 04:51:51 AM 37.1412 -72.6523 355° North 435 501 36,000  Level FlightAware ADS-B
Thu 04:52:35 AM 37.2260 -72.6865 342° North 434 499 36,000  Level FlightAware ADS-B
Thu 04:53:05 AM 37.2834 -72.7097 342° North 434 499 36,000 -400 Level FlightAware ADS-B
Thu 04:53:35 AM 37.3417 -72.7333 342° North 440 506 35,600 -968 Descending FlightAware ADS-B
Thu 04:54:07 AM 37.4036 -72.7584 342° North 443 510 35,000 -1,182 Descending FlightAware ADS-B
Thu 04:54:41 AM 37.4700 -72.7856 342° North 442 509 34,300 -1,286 Descending FlightAware ADS-B
Thu 04:55:17 AM 37.5399 -72.8141 342° North 439 505 33,500 -1,304 Descending FlightAware ADS-B
Thu 04:55:50 AM 37.6030 -72.8398 342° North 432 497 32,800 -1,219 Descending FlightAware ADS-B
Thu 04:56:21 AM 37.6603 -72.8631 342° North 426 490 32,200 -1,200 Descending FlightAware ADS-B
Thu 04:56:55 AM 37.7248 -72.8892 342° North 422 486 31,500 -1,200 Descending FlightAware ADS-B
Thu 04:57:26 AM 37.7804 -72.9121 342° North 411 473 30,900 -1,180 Descending FlightAware ADS-B
Thu 04:57:56 AM 37.8355 -72.9348 342° North 405 466 30,300 -1,180 Descending FlightAware ADS-B
Thu 04:58:27 AM 37.8893 -72.9570 342° North 400 460 29,700 -1,180 Descending FlightAware ADS-B
Thu 04:58:57 AM 37.9420 -72.9789 342° North 395 455 29,100 -1,125 Descending FlightAware ADS-B
Thu 04:59:31 AM 38.0008 -73.0030 342° North 390 449 28,500 -1,075 Descending FlightAware ADS-B
Thu 05:00:04 AM 38.0561 -73.0258 342° North 387 445 27,900 -1,143 Descending FlightAware ADS-B
Thu 05:00:34 AM 38.1077 -73.0472 342° North 388 447 27,300 -1,100 Descending FlightAware ADS-B
Thu 05:01:04 AM 38.1593 -73.0687 342° North 387 445 26,800 -1,075 Descending FlightAware ADS-B
Thu 05:01:41 AM 38.2216 -73.0944 342° North 384 442 26,100 -1,075 Descending FlightAware ADS-B
Thu 05:02:11 AM 38.2723 -73.1156 342° North 380 437 25,600 -1,082 Descending FlightAware ADS-B
Thu 05:02:42 AM 38.3231 -73.1368 342° North 377 434 25,000 -1,125 Descending FlightAware ADS-B
Thu 05:03:15 AM 38.3775 -73.1595 342° North 373 429 24,400 -1,048 Descending FlightAware ADS-B
Thu 05:03:45 AM 38.4271 -73.1802 342° North 373 429 23,900 -1,000 Descending FlightAware ADS-B
Thu 05:04:15 AM 38.4764 -73.2008 342° North 371 427 23,400 -984 Descending FlightAware ADS-B
Thu 05:04:46 AM 38.5270 -73.2220 342° North 366 421 22,900 -968 Descending FlightAware ADS-B
Thu 05:05:17 AM 38.5760 -73.2426 342° North 365 420 22,400 -968 Descending FlightAware ADS-B
Thu 05:05:48 AM 38.6258 -73.2634 342° North 364 419 21,900 -968 Descending FlightAware ADS-B
Thu 05:06:19 AM 38.6749 -73.2841 342° North 361 415 21,400 -984 Descending FlightAware ADS-B
Thu 05:06:49 AM 38.7228 -73.3043 342° North 357 411 20,900 -984 Descending FlightAware ADS-B
Thu 05:07:20 AM 38.7699 -73.3242 342° North 353 406 20,400 -984 Descending FlightAware ADS-B
Thu 05:07:50 AM 38.8173 -73.3442 342° North 351 404 19,900 -900 Descending FlightAware ADS-B
Thu 05:08:20 AM 38.8635 -73.3638 342° North 348 400 19,500 -871 Descending FlightAware ADS-B
Thu 05:08:52 AM 38.9114 -73.3840 342° North 350 403 19,000 -968 Descending FlightAware ADS-B
Thu 05:09:22 AM 38.9577 -73.4037 342° North 350 403 18,500 -984 Descending FlightAware ADS-B
Thu 05:09:53 AM 39.0046 -73.4237 342° North 345 397 18,000 -1,082 Descending FlightAware ADS-B
Thu 05:10:23 AM 39.0508 -73.4434 342° North 340 391 17,400 -1,082 Descending FlightAware ADS-B
Thu 05:10:54 AM 39.0957 -73.4623 342° North 337 388 16,900 -984 Descending FlightAware ADS-B
Thu 05:11:24 AM 39.1400 -73.4813 342° North 334 384 16,400 -1,000 Descending FlightAware ADS-B
Thu 05:11:54 AM 39.1842 -73.5001 342° North 335 386 15,900 -1,000 Descending FlightAware ADS-B
Thu 05:12:24 AM 39.2286 -73.5193 341° North 335 386 15,400 -1,000 Descending FlightAware ADS-B
Thu 05:12:54 AM 39.2727 -73.5382 342° North 335 386 14,900 -984 Descending FlightAware ADS-B
Thu 05:13:25 AM 39.3183 -73.5577 342° North 336 387 14,400 -984 Descending FlightAware ADS-B
Thu 05:13:55 AM 39.3634 -73.5772 342° North 338 389 13,900 -900 Descending FlightAware ADS-B
Thu 05:14:25 AM 39.4081 -73.5964 342° North 336 387 13,500 -800 Descending FlightAware ADS-B
Thu 05:14:55 AM 39.4525 -73.6156 342° North 334 384 13,100 -885 Descending FlightAware ADS-B
Thu 05:15:26 AM 39.4967 -73.6345 342° North 330 380 12,600 -871 Descending FlightAware ADS-B
Thu 05:15:57 AM 39.5417 -73.6540 342° North 328 377 12,200 -885 Descending FlightAware ADS-B
Thu 05:16:27 AM 39.5851 -73.6728 342° North 326 375 11,700 -885 Descending FlightAware ADS-B
Thu 05:16:58 AM 39.6286 -73.6915 342° North 324 373 11,300 -814 Descending FlightAware ADS-B
Thu 05:17:26 AM 39.6686 -73.7089 341° North 325 374 10,900 -815 Descending FlightAware ADS-B
Thu 05:18:19 AM 39.7432 -73.7414 341° North 322 371 10,200 -868 Descending FlightAware ADS-B
Thu 05:18:42 AM 39.7752 -73.7552 342° North 317 365 9,800 -831 Descending FlightAware ADS-B
Thu 05:19:24 AM 39.8305 -73.7793 341° North 317 365 9,300 -724 Descending FlightAware ADS-B
Thu 05:19:40 AM 39.8501 -73.7878 342° North 282 325 9,100 -581 Descending FlightAware ADS-B
Thu 05:19:55 AM 39.8690 -73.7961 341° North 279 321 9,000 -581 Descending FlightAware ADS-B
Thu 05:20:11 AM 39.8877 -73.8043 341° North 278 320 8,800 -581 Descending FlightAware ADS-B
Thu 05:20:26 AM 39.9069 -73.8127 341° North 279 321 8,700 -581 Descending FlightAware ADS-B
Thu 05:20:42 AM 39.9257 -73.8209 342° North 280 322 8,500 -387 Descending FlightAware ADS-B
Thu 05:20:57 AM 39.9449 -73.8294 341° North 280 322 8,500  Level FlightAware ADS-B
Thu 05:21:10 AM 39.9600 -73.8371 339° North 281 323 8,500  Level FlightAware ADS-B
Thu 05:21:27 AM 39.9805 -73.8489 336° Northwest 281 323 8,500  Level FlightAware ADS-B
Thu 05:21:42 AM 39.9984 -73.8593 336° Northwest 280 322 8,500  Level FlightAware ADS-B
Thu 05:21:57 AM 40.0164 -73.8696 336° Northwest 279 321 8,500  Level FlightAware ADS-B
Thu 05:22:13 AM 40.0347 -73.8801 336° Northwest 279 321 8,500  Level FlightAware ADS-B
Thu 05:22:28 AM 40.0531 -73.8907 336° Northwest 278 320 8,500  Level FlightAware ADS-B
Thu 05:22:43 AM 40.0708 -73.9009 336° Northwest 278 320 8,500 -200 Level FlightAware ADS-B
Thu 05:22:58 AM 40.0882 -73.9110 336° Northwest 274 315 8,400 -968 Descending FlightAware ADS-B
Thu 05:23:14 AM 40.1065 -73.9216 336° Northwest 275 316 8,000 -1,548 Descending FlightAware ADS-B
Thu 05:23:29 AM 40.1241 -73.9321 335° Northwest 277 319 7,600 -1,548 Descending FlightAware ADS-B
Thu 05:23:45 AM 40.1420 -73.9427 336° Northwest 275 316 7,200 -2,063 Descending FlightAware ADS-B
Thu 05:24:01 AM 40.1606 -73.9540 335° Northwest 274 315 6,500 -2,710 Descending FlightAware ADS-B
Thu 05:24:16 AM 40.1779 -73.9651 334° Northwest 273 314 5,800 -2,690 Descending FlightAware ADS-B
Thu 05:24:30 AM 40.1939 -73.9754 334° Northwest 271 312 5,200 -2,600 Descending FlightAware ADS-B
Thu 05:24:46 AM 40.2115 -73.9865 334° Northwest 271 312 4,500 -2,870 Descending FlightAware ADS-B
Thu 05:24:53 AM 40.2202 -73.9916 336° Northwest 270 311 4,100 -2,769 Descending FlightAware ADS-B
Thu 05:24:59 AM 40.2268 -73.9950 339° North 271 312 3,900 -2,182 Descending FlightAware ADS-B
Thu 05:25:04 AM 40.2327 -73.9975 342° North 272 313 3,700 -1,800 Descending FlightAware ADS-B
Thu 05:25:09 AM 40.2385 -73.9995 345° North 270 311 3,600 -632 Descending FlightAware ADS-B
Thu 05:25:23 AM 40.2563 -74.0036 350° North 262 302 3,500 -600 Descending FlightAware ADS-B
Thu 05:25:39 AM 40.2743 -74.0069 352° North 254 292 3,300 -581 Descending FlightAware ADS-B
Thu 05:25:54 AM 40.2917 -74.0097 353° North 247 284 3,200 -600 Descending FlightAware ADS-B
Thu 05:26:09 AM 40.3085 -74.0125 353° North 237 273 3,000 -720 Descending FlightAware ADS-B
Thu 05:26:19 AM 40.3196 -74.0141 354° North 232 267 2,900 -429 Descending FlightAware ADS-B
Thu 05:26:23 AM 40.3235 -74.0142 359° North 228 262 2,900  Level FlightAware ADS-B
Thu 05:26:26 AM 40.3268 -74.0138 North 225 259 2,900 -857 Level FlightAware ADS-B
Thu 05:26:30 AM 40.3309 -74.0126 13° North 217 250 2,800 -750 Descending FlightAware ADS-B
Thu 05:26:34 AM 40.3343 -74.0110 20° North 212 244 2,800 -667 Level FlightAware ADS-B
Thu 05:26:39 AM 40.3385 -74.0080 29° Northeast 205 236 2,700 -667 Descending FlightAware ADS-B
Thu 05:26:43 AM 40.3414 -74.0056 32° Northeast 201 231 2,700 -316 Level FlightAware ADS-B
Thu 05:26:58 AM 40.3527 -73.9950 36° Northeast 191 220 2,600 -462 Descending FlightAware ADS-B
Thu 05:27:09 AM 40.3610 -73.9883 32° Northeast 186 214 2,500 -231 Descending FlightAware ADS-B
Thu 05:27:24 AM 40.3721 -73.9802 29° Northeast 188 216 2,500 -214 Level FlightAware ADS-B
Thu 05:27:37 AM 40.3818 -73.9728 30° Northeast 189 217 2,400 -214 Descending FlightAware ADS-B
Thu 05:27:52 AM 40.3932 -73.9637 31° Northeast 189 217 2,400 -200 Level FlightAware ADS-B
Thu 05:28:07 AM 40.4043 -73.9553 30° Northeast 190 219 2,300 -387 Descending FlightAware ADS-B
Thu 05:28:23 AM 40.4166 -73.9455 31° Northeast 184 212 2,200 -500 Descending FlightAware ADS-B
Thu 05:29:07 AM 40.4480 -73.9220 30° Northeast 188 216 1,800 -405 Descending FlightAware ADS-B
Thu 05:29:37 AM 40.4690 -73.9050 32° Northeast 185 213 1,700 -300 Descending FlightAware ADS-B
Thu 05:30:07 AM 40.4900 -73.8880 32° Northeast 183 211 1,500 -218 Descending FlightAware ADS-B
Thu 05:30:32 AM 40.5110 -73.8730 29° Northeast 186 214 1,500 109 Level FlightAware ADS-B
Thu 05:31:02 AM 40.5330 -73.8550 32° Northeast 185 213 1,600 -218 Climbing FlightAware ADS-B
Thu 05:31:27 AM 40.5500 -73.8420 30° Northeast 174 200 1,300 -873 Descending FlightAware ADS-B
Thu 05:31:57 AM 40.5700 -73.8260 31° Northeast 145 167 800 -933 Descending FlightAware ADS-B
Thu 05:32:12 AM 40.5780 -73.8200 30° Northeast 139 160 600 -750 Descending FlightAware ADS-B
Thu 05:32:37 AM 40.5920 -73.8090 31° Northeast 137 158 300 -720 Descending FlightAware ADS-B
Thu 05:33:07 AM 40.6080 -73.7970 30° Northeast 137 158 -600 Descending FlightAware ADS-B
Thu 05:33:32 AM 40.6220 -73.7850 33° Northeast 138 159  Level FlightAware ADS-B

Login

Don't have an account? Register now (free) for customized features, flight alerts, and more!